Time;durP1;ratioP1;P1;durP2;ratioP2;P2;SDS_P1;SDS_P2;PMS_P1;PMS_P2;Temp;Humidity;BMP_temperature;BMP_pressure;BME280_temperature;BME280_humidity;BME280_pressure;Samples;Min_cycle;Max_cycle;Signal;HPM_P1;HPM_P2
2022/05/05 00:00:56;;;;;;;15.07;8.65;;;;;;;;;;6164601;23;20023;-89
2022/05/05 00:03:22;;;;;;;17.50;9.23;;;;;;;;;;6164888;23;20068;-90
2022/05/05 00:05:48;;;;;;;13.30;7.95;;;;;;;;;;6165024;23;20016;-89
2022/05/05 00:08:14;;;;;;;13.85;8.57;;;;;;;;;;6164985;23;20063;-89
2022/05/05 00:16:10;;;;;;;12.48;8.85;;;;;;;;;;6190993;23;20020;-91
2022/05/05 00:18:36;;;;;;;16.00;8.10;;;;;;;;;;6189444;23;20346;-90
2022/05/05 00:21:02;;;;;;;20.08;8.23;;;;;;;;;;6164684;23;20095;-89
2022/05/05 00:23:28;;;;;;;14.93;9.70;;;;;;;;;;6189496;23;20027;-91
2022/05/05 00:25:54;;;;;;;20.02;8.93;;;;;;;;;;6190413;23;20012;-89
2022/05/05 00:28:21;;;;;;;16.20;8.93;;;;;;;;;;6164912;23;20021;-89
2022/05/05 00:30:47;;;;;;;15.88;8.60;;;;;;;;;;6164998;23;20019;-89
2022/05/05 00:33:13;;;;;;;15.45;8.35;;;;;;;;;;6164803;23;20091;-90
2022/05/05 00:35:39;;;;;;;12.70;8.63;;;;;;;;;;6164746;23;20016;-89
2022/05/05 00:38:05;;;;;;;18.00;9.13;;;;;;;;;;6164586;23;20029;-91
2022/05/05 00:40:31;;;;;;;10.98;7.97;;;;;;;;;;6164747;23;20021;-92
2022/05/05 00:43:02;;;;;;;14.73;8.27;;;;;;;;;;6189815;23;20017;-90
2022/05/05 00:45:28;;;;;;;13.88;8.45;;;;;;;;;;6165593;23;20052;-91
2022/05/05 00:48:03;;;;;;;11.48;8.30;;;;;;;;;;6166038;23;20435;-91
2022/05/05 00:50:29;;;;;;;14.43;8.23;;;;;;;;;;6164991;23;20060;-89
2022/05/05 00:52:55;;;;;;;17.27;8.65;;;;;;;;;;6164467;23;20021;-89
2022/05/05 00:55:21;;;;;;;18.38;8.77;;;;;;;;;;6165066;23;20338;-91
2022/05/05 00:57:47;;;;;;;15.18;7.72;;;;;;;;;;6164844;23;20076;-92
2022/05/05 01:00:14;;;;;;;22.42;9.00;;;;;;;;;;6164810;23;20013;-89
2022/05/05 01:02:40;;;;;;;13.70;7.65;;;;;;;;;;6164256;23;20020;-89
2022/05/05 01:05:06;;;;;;;13.07;7.07;;;;;;;;;;6189181;23;20017;-88
2022/05/05 01:07:32;;;;;;;12.40;7.72;;;;;;;;;;6189311;23;20024;-88
2022/05/05 01:09:59;;;;;;;15.73;8.18;;;;;;;;;;6164381;23;20024;-90
2022/05/05 01:12:29;;;;;;;12.98;7.68;;;;;;;;;;6165824;23;20021;-89
2022/05/05 01:15:05;;;;;;;11.25;7.20;;;;;;;;;;6189240;23;20071;-89
2022/05/05 01:17:31;;;;;;;14.30;7.88;;;;;;;;;;6164319;23;20021;-90
2022/05/05 01:19:57;;;;;;;10.98;6.97;;;;;;;;;;6166031;23;20349;-89
2022/05/05 01:22:26;;;;;;;16.73;7.70;;;;;;;;;;6166307;23;20017;-89
2022/05/05 01:30:21;;;;;;;14.85;8.68;;;;;;;;;;6191094;23;20028;-90
2022/05/05 01:32:47;;;;;;;13.90;7.00;;;;;;;;;;6166339;23;20068;-89
2022/05/05 01:35:13;;;;;;;12.13;7.07;;;;;;;;;;6166782;23;20013;-89
2022/05/05 01:37:40;;;;;;;12.30;6.72;;;;;;;;;;6166205;23;20070;-90
2022/05/05 01:40:06;;;;;;;12.05;7.88;;;;;;;;;;6191220;23;20068;-90
2022/05/05 01:42:32;;;;;;;9.25;6.78;;;;;;;;;;6166843;23;20101;-90
2022/05/05 01:44:58;;;;;;;10.07;7.18;;;;;;;;;;6166184;23;20027;-90
2022/05/05 01:47:24;;;;;;;15.57;7.13;;;;;;;;;;6166086;23;20021;-90
2022/05/05 01:49:50;;;;;;;13.50;8.00;;;;;;;;;;6167479;23;20326;-90
2022/05/05 01:52:16;;;;;;;16.95;7.25;;;;;;;;;;6166941;23;20381;-91
2022/05/05 01:54:42;;;;;;;12.95;6.90;;;;;;;;;;6166354;23;20012;-91
2022/05/05 01:57:09;;;;;;;18.60;6.93;;;;;;;;;;6166027;23;20013;-91
2022/05/05 01:59:35;;;;;;;14.40;6.60;;;;;;;;;;6166104;23;20024;-90
2022/05/05 02:02:02;;;;;;;13.35;7.13;;;;;;;;;;6190808;23;20016;-90
2022/05/05 02:04:28;;;;;;;11.20;6.88;;;;;;;;;;6190861;23;20032;-91
2022/05/05 02:06:54;;;;;;;13.60;6.72;;;;;;;;;;6166240;23;20403;-90
2022/05/05 02:09:20;;;;;;;15.48;7.47;;;;;;;;;;6167160;23;20019;-90
2022/05/05 02:11:46;;;;;;;14.63;6.78;;;;;;;;;;6167187;23;20017;-90
2022/05/05 02:14:12;;;;;;;11.32;7.38;;;;;;;;;;6191967;23;20017;-90
2022/05/05 02:16:38;;;;;;;14.80;6.78;;;;;;;;;;6166926;23;20092;-91
2022/05/05 02:19:04;;;;;;;14.10;6.80;;;;;;;;;;6166981;23;20527;-90
2022/05/05 02:21:30;;;;;;;9.77;6.43;;;;;;;;;;6166921;23;20328;-89
2022/05/05 02:23:56;;;;;;;10.02;7.13;;;;;;;;;;6167111;23;20446;-88
2022/05/05 02:26:22;;;;;;;16.73;7.20;;;;;;;;;;6168221;23;20016;-88
2022/05/05 02:28:49;;;;;;;12.70;6.88;;;;;;;;;;6192488;23;20017;-88
2022/05/05 02:31:16;;;;;;;19.92;7.47;;;;;;;;;;6167433;23;20020;-88
2022/05/05 02:33:42;;;;;;;14.35;7.05;;;;;;;;;;6169001;23;20008;-89
2022/05/05 02:38:52;;;;;;;8.30;6.97;;;;;;;;;;6192863;23;20021;-89
2022/05/05 02:41:19;;;;;;;13.45;6.40;;;;;;;;;;6167695;23;20017;-88
2022/05/05 02:43:45;;;;;;;13.77;7.40;;;;;;;;;;6168045;23;20017;-87
2022/05/05 02:46:11;;;;;;;12.35;8.00;;;;;;;;;;6167991;23;20020;-87
2022/05/05 02:48:37;;;;;;;11.80;6.90;;;;;;;;;;6167654;23;20020;-87
2022/05/05 02:51:03;;;;;;;11.95;6.95;;;;;;;;;;6167314;23;20016;-88
2022/05/05 02:56:16;;;;;;;11.25;6.57;;;;;;;;;;6190886;23;20067;-88
2022/05/05 02:58:42;;;;;;;18.10;7.05;;;;;;;;;;6190972;23;20059;-88
2022/05/05 03:01:08;;;;;;;14.20;6.45;;;;;;;;;;6165780;23;20047;-88
2022/05/05 03:03:35;;;;;;;14.98;7.00;;;;;;;;;;6166196;23;20025;-89
2022/05/05 03:06:01;;;;;;;11.90;6.70;;;;;;;;;;6191882;23;20013;-89
2022/05/05 03:08:27;;;;;;;10.25;7.07;;;;;;;;;;6166948;23;20023;-89
2022/05/05 03:10:53;;;;;;;11.25;6.80;;;;;;;;;;6165905;23;20024;-90
2022/05/05 03:13:19;;;;;;;13.13;7.53;;;;;;;;;;6166564;23;20020;-89
2022/05/05 03:15:45;;;;;;;18.23;7.32;;;;;;;;;;6166706;23;20021;-89
2022/05/05 03:18:11;;;;;;;17.15;6.72;;;;;;;;;;6191597;23;20028;-90
2022/05/05 03:20:37;;;;;;;11.35;6.25;;;;;;;;;;6191212;23;20468;-89
2022/05/05 03:23:05;;;;;;;13.23;7.35;;;;;;;;;;6166429;23;20083;-88
2022/05/05 03:25:31;;;;;;;14.23;7.35;;;;;;;;;;6191262;23;20013;-88
2022/05/05 03:27:57;;;;;;;15.90;7.53;;;;;;;;;;6190689;23;20026;-90
2022/05/05 03:30:23;;;;;;;9.95;6.93;;;;;;;;;;6167277;23;20017;-89
2022/05/05 03:32:49;;;;;;;11.20;6.53;;;;;;;;;;6190732;23;20020;-90
2022/05/05 03:35:15;;;;;;;13.13;6.82;;;;;;;;;;6190811;23;20096;-89
2022/05/05 03:37:41;;;;;;;12.15;6.85;;;;;;;;;;6166198;23;20020;-90
2022/05/05 03:40:07;;;;;;;13.35;6.80;;;;;;;;;;6190632;23;20013;-89
2022/05/05 03:42:34;;;;;;;11.60;7.00;;;;;;;;;;6168358;23;20087;-90
2022/05/05 03:45:00;;;;;;;14.27;7.05;;;;;;;;;;6167033;23;20008;-90
2022/05/05 03:47:26;;;;;;;11.48;7.53;;;;;;;;;;6168389;23;20017;-89
2022/05/05 03:49:52;;;;;;;12.65;6.60;;;;;;;;;;6166649;23;20020;-89
2022/05/05 03:52:18;;;;;;;12.90;6.93;;;;;;;;;;6166729;23;20020;-90
2022/05/05 03:54:44;;;;;;;14.90;7.15;;;;;;;;;;6190132;23;20012;-89
2022/05/05 03:57:10;;;;;;;12.02;6.43;;;;;;;;;;6165846;23;20067;-90
2022/05/05 03:59:36;;;;;;;9.45;7.20;;;;;;;;;;6165072;23;20016;-90
2022/05/05 04:02:02;;;;;;;12.07;7.07;;;;;;;;;;6164618;23;20020;-89
2022/05/05 04:04:28;;;;;;;10.07;6.55;;;;;;;;;;6164878;23;20040;-89
2022/05/05 04:06:54;;;;;;;14.60;7.03;;;;;;;;;;6190210;23;20035;-90
2022/05/05 04:09:20;;;;;;;11.38;6.80;;;;;;;;;;6189647;23;20458;-91
2022/05/05 04:11:46;;;;;;;15.73;6.90;;;;;;;;;;6165401;23;20023;-89
2022/05/05 04:14:12;;;;;;;13.63;6.72;;;;;;;;;;6190436;23;20087;-93
2022/05/05 04:16:39;;;;;;;12.10;6.85;;;;;;;;;;6216993;23;20013;-92
2022/05/05 04:19:05;;;;;;;11.38;7.07;;;;;;;;;;6165979;23;20043;-93
2022/05/05 04:21:31;;;;;;;11.57;6.72;;;;;;;;;;6165363;23;20464;-93
2022/05/05 04:23:58;;;;;;;13.77;8.15;;;;;;;;;;6217698;23;20059;-93
2022/05/05 04:26:24;;;;;;;12.50;6.70;;;;;;;;;;6165245;23;20023;-93
2022/05/05 04:28:51;;;;;;;9.93;7.72;;;;;;;;;;6189918;23;20023;-93
2022/05/05 04:31:18;;;;;;;12.35;7.55;;;;;;;;;;6165091;23;20024;-90
2022/05/05 04:33:44;;;;;;;11.13;7.10;;;;;;;;;;6164502;23;20024;-90
2022/05/05 04:36:11;;;;;;;19.45;8.85;;;;;;;;;;6189391;23;20017;-91
2022/05/05 04:38:38;;;;;;;13.57;7.55;;;;;;;;;;6189650;23;20353;-90
2022/05/05 04:41:04;;;;;;;11.70;7.22;;;;;;;;;;6164448;23;20013;-91
2022/05/05 04:43:30;;;;;;;15.32;8.57;;;;;;;;;;6189434;23;20040;-89
2022/05/05 04:45:56;;;;;;;9.85;6.93;;;;;;;;;;6164787;23;20485;-92
2022/05/05 04:48:22;;;;;;;8.82;6.72;;;;;;;;;;6164805;23;20060;-91
2022/05/05 04:50:48;;;;;;;17.50;7.82;;;;;;;;;;6189926;23;20013;-91
2022/05/05 04:53:14;;;;;;;12.48;7.65;;;;;;;;;;6191188;23;20028;-89
2022/05/05 04:55:41;;;;;;;16.60;7.53;;;;;;;;;;6167038;23;20017;-90
2022/05/05 04:58:07;;;;;;;12.18;8.30;;;;;;;;;;6166703;23;20469;-89
2022/05/05 05:00:33;;;;;;;12.68;7.68;;;;;;;;;;6191626;23;20024;-91
2022/05/05 05:02:59;;;;;;;13.57;7.32;;;;;;;;;;6166749;23;20026;-91
2022/05/05 05:05:25;;;;;;;18.05;7.60;;;;;;;;;;6168154;23;20025;-90
2022/05/05 05:07:51;;;;;;;12.48;8.00;;;;;;;;;;6166801;23;20027;-92
2022/05/05 05:10:17;;;;;;;12.27;7.13;;;;;;;;;;6166563;23;20017;-91
2022/05/05 05:12:43;;;;;;;12.38;7.90;;;;;;;;;;6166810;23;20020;-93
2022/05/05 05:15:10;;;;;;;16.55;7.70;;;;;;;;;;6191687;23;20012;-93
2022/05/05 05:17:36;;;;;;;12.63;7.60;;;;;;;;;;6166309;23;20016;-92
2022/05/05 05:20:03;;;;;;;14.50;8.00;;;;;;;;;;6166764;23;20016;-92
2022/05/05 05:22:29;;;;;;;15.25;7.78;;;;;;;;;;6166844;23;20104;-92
2022/05/05 05:24:55;;;;;;;14.73;7.80;;;;;;;;;;6166861;23;20071;-92
2022/05/05 05:27:21;;;;;;;12.75;7.45;;;;;;;;;;6166783;23;20044;-91
2022/05/05 05:29:47;;;;;;;12.90;6.70;;;;;;;;;;6166776;23;20021;-91
2022/05/05 05:32:13;;;;;;;13.68;7.38;;;;;;;;;;6218595;23;20442;-92
2022/05/05 05:34:40;;;;;;;9.50;6.88;;;;;;;;;;6166273;23;20017;-92
2022/05/05 05:37:06;;;;;;;11.38;6.82;;;;;;;;;;6166858;23;20017;-91
2022/05/05 05:39:32;;;;;;;11.35;7.38;;;;;;;;;;6192426;23;20070;-92
2022/05/05 05:41:58;;;;;;;10.80;7.15;;;;;;;;;;6191491;23;20020;-92
2022/05/05 05:44:24;;;;;;;15.35;7.70;;;;;;;;;;6167000;23;20016;-91
2022/05/05 05:46:51;;;;;;;15.30;7.22;;;;;;;;;;6168720;23;20090;-91
2022/05/05 05:49:17;;;;;;;12.40;6.90;;;;;;;;;;6193512;23;20091;-91
2022/05/05 05:51:43;;;;;;;10.50;7.03;;;;;;;;;;6191136;23;20051;-90
2022/05/05 05:54:09;;;;;;;21.70;7.57;;;;;;;;;;6166207;23;20020;-90
2022/05/05 05:56:35;;;;;;;13.68;6.78;;;;;;;;;;6166994;23;20020;-88
2022/05/05 05:59:01;;;;;;;15.48;7.05;;;;;;;;;;6167304;23;20055;-90
2022/05/05 06:04:12;;;;;;;13.55;7.35;;;;;;;;;;6192071;23;20025;-91
2022/05/05 06:06:42;;;;;;;15.02;8.18;;;;;;;;;;6191642;23;20016;-90
2022/05/05 06:09:08;;;;;;;10.70;6.40;;;;;;;;;;6167784;23;20022;-90
2022/05/05 06:11:35;;;;;;;16.38;7.43;;;;;;;;;;6167175;23;20016;-91
2022/05/05 06:14:04;;;;;;;10.13;6.78;;;;;;;;;;6167009;23;20308;-91
2022/05/05 06:16:30;;;;;;;11.88;7.03;;;;;;;;;;6166982;23;20017;-90
2022/05/05 06:18:56;;;;;;;11.70;7.70;;;;;;;;;;6191290;23;20016;-90
2022/05/05 06:21:22;;;;;;;21.60;7.13;;;;;;;;;;6167679;23;20143;-90
2022/05/05 06:23:48;;;;;;;7.60;5.75;;;;;;;;;;6201805;23;20072;-90
2022/05/05 06:26:15;;;;;;;9.98;7.20;;;;;;;;;;6187278;23;20024;-91
2022/05/05 06:28:42;;;;;;;18.33;7.13;;;;;;;;;;6178568;23;20074;-90
2022/05/05 06:31:08;;;;;;;13.07;6.60;;;;;;;;;;6197485;23;20024;-91
2022/05/05 06:33:34;;;;;;;13.27;7.93;;;;;;;;;;6179785;23;20016;-89
2022/05/05 06:36:00;;;;;;;8.90;7.20;;;;;;;;;;6204590;23;20016;-89
2022/05/05 06:38:26;;;;;;;8.80;7.40;;;;;;;;;;6173974;23;20017;-89
2022/05/05 06:40:52;;;;;;;12.73;6.93;;;;;;;;;;6190895;23;20052;-88
2022/05/05 06:43:19;;;;;;;19.10;8.98;;;;;;;;;;6167083;23;20044;-92
2022/05/05 06:45:45;;;;;;;15.55;7.35;;;;;;;;;;6166060;23;20087;-91
2022/05/05 06:48:12;;;;;;;19.60;7.63;;;;;;;;;;6190784;23;20017;-91
2022/05/05 06:50:38;;;;;;;13.77;7.97;;;;;;;;;;6191923;23;20013;-93
2022/05/05 06:53:04;;;;;;;13.77;8.30;;;;;;;;;;6165987;23;20020;-93
2022/05/05 06:55:30;;;;;;;14.32;6.80;;;;;;;;;;6167050;23;20016;-91
2022/05/05 06:57:57;;;;;;;10.77;7.20;;;;;;;;;;6190125;23;20028;-90
2022/05/05 07:00:23;;;;;;;14.13;8.00;;;;;;;;;;6165288;23;20401;-90
2022/05/05 07:02:49;;;;;;;13.40;7.90;;;;;;;;;;6165348;23;20051;-87
2022/05/05 07:05:24;;;;;;;18.15;7.32;;;;;;;;;;6166168;23;20367;-88
2022/05/05 07:07:53;;;;;;;19.25;8.55;;;;;;;;;;6165288;23;20021;-90
2022/05/05 07:13:04;;;;;;;14.35;9.38;;;;;;;;;;6189984;23;20039;-90
2022/05/05 07:15:30;;;;;;;14.88;7.72;;;;;;;;;;6190036;23;20016;-89
2022/05/05 07:17:56;;;;;;;17.15;7.93;;;;;;;;;;6164649;23;20020;-90
2022/05/05 07:20:23;;;;;;;16.98;8.45;;;;;;;;;;6165541;23;20020;-91
2022/05/05 07:22:51;;;;;;;13.30;8.05;;;;;;;;;;6165216;23;20493;-91
2022/05/05 07:25:18;;;;;;;16.40;8.18;;;;;;;;;;6165292;23;20016;-89
2022/05/05 07:27:47;;;;;;;11.32;8.07;;;;;;;;;;6165567;23;20012;-90
2022/05/05 07:30:16;;;;;;;10.27;7.90;;;;;;;;;;6165117;23;20027;-92
2022/05/05 07:32:43;;;;;;;10.32;7.15;;;;;;;;;;6191250;23;20023;-89
2022/05/05 07:35:11;;;;;;;10.52;7.75;;;;;;;;;;6165652;23;20047;-88
2022/05/05 07:37:37;;;;;;;12.57;8.18;;;;;;;;;;6191108;23;20413;-92
2022/05/05 07:40:07;;;;;;;15.68;8.68;;;;;;;;;;6165099;23;20458;-90
2022/05/05 07:42:35;;;;;;;14.85;8.77;;;;;;;;;;6189834;23;20020;-93
2022/05/05 07:45:01;;;;;;;13.43;8.20;;;;;;;;;;6164903;23;20017;-93
2022/05/05 07:47:28;;;;;;;15.68;8.88;;;;;;;;;;6190179;23;20067;-91
2022/05/05 07:49:54;;;;;;;18.33;8.23;;;;;;;;;;6189954;23;20016;-89
2022/05/05 07:52:20;;;;;;;15.68;8.55;;;;;;;;;;6189522;23;20025;-89
2022/05/05 07:54:46;;;;;;;19.30;8.15;;;;;;;;;;6164654;23;20024;-91
2022/05/05 07:57:20;;;;;;;18.77;6.95;;;;;;;;;;6189468;23;20051;-92
2022/05/05 07:59:50;;;;;;;;;;;11.80;99.90;;;;;;6166867;23;20020;-94
2022/05/05 08:02:17;;;;;;;20.75;7.25;;;;;;;;;;6164428;23;19916;-92
2022/05/05 08:04:44;;;;;;;16.77;7.55;;;;;;;;;;6164899;23;20016;-91
2022/05/05 08:07:10;;;;;;;12.60;7.57;;;;;;;;;;6165945;23;20020;-91
2022/05/05 08:09:39;;;;;;;14.00;6.20;;;;;;;;;;6169128;23;20052;-90
2022/05/05 08:12:06;;;;;;;24.27;7.38;;;;;;;;;;6165589;23;20021;-90
2022/05/05 08:14:32;;;;;;;15.75;7.93;;;;;;;;;;6166735;23;20017;-91
2022/05/05 08:16:58;;;;;;;12.98;6.60;;;;;;;;;;6167006;23;20043;-94
2022/05/05 08:19:39;;;;;;;9.75;6.63;;;;;;;;;;6196655;23;20032;-95
2022/05/05 08:22:05;;;;;;;7.85;6.13;;;;;;;;;;6167560;23;20326;-90
2022/05/05 08:31:12;;;;;;;;;;;;;;;;;;;;;
2022/05/05 08:37:14;;;;;;;;;;;;;;;;;;;;;
2022/05/05 08:40:03;;;;;;;12.18;5.38;;;;;;;;;;6065160;23;20483;-90
2022/05/05 08:50:40;;;;;;;9.70;5.68;;;;;;;;;;5955594;24;20029;-94
2022/05/05 08:53:08;;;;;;;8.13;5.07;;;;;;;;;;5931884;24;20024;-93
2022/05/05 08:59:11;;;;;;;10.32;5.00;;;;;;;;;;5956399;24;20028;-93
2022/05/05 09:01:46;;;;;;;10.48;4.07;;;;;;;;;;5910275;23;20019;-92
2022/05/05 09:04:21;;;;;;;8.82;4.65;;;;;;;;;;5932516;24;20108;-92
2022/05/05 09:34:05;;;;;;;9.27;6.07;;;;;;;;;;6131849;23;1596445;-89
2022/05/05 09:36:36;;;;;;;9.13;6.32;;;;;;;;;;6170831;23;20394;-89
2022/05/05 09:39:05;;;;;;;14.60;6.82;;;;;;;;;;6172251;23;20024;-90
2022/05/05 09:41:33;;;;;;;9.98;6.07;;;;;;;;;;6147452;23;20032;-88
2022/05/05 09:44:20;;;;;;;11.75;6.50;;;;;;;;;;6148011;23;20083;-90
2022/05/05 09:46:46;;;;;;;9.05;5.78;;;;;;;;;;6147406;23;20025;-93
2022/05/05 09:49:17;;;;;;;9.00;6.50;;;15.20;99.90;;;;;;6173028;23;20013;-91
2022/05/05 09:57:41;;;;;;;10.45;7.03;;;15.20;99.90;;;;;;6087725;23;20022;-90
2022/05/05 10:00:58;;;;;;;13.10;6.45;;;;;;;;;;6081193;23;20024;-91
2022/05/05 10:05:46;;;;;;;10.02;6.25;;;;;;;;;;6079889;23;20022;-88
2022/05/05 10:08:18;;;;;;;11.75;6.82;;;15.60;99.90;;;;;;6056901;23;20022;-87
2022/05/05 10:10:45;;;;;;;14.85;7.88;;;15.70;99.90;;;;;;6081305;23;20073;-87
2022/05/05 10:13:14;;;;;;;14.65;7.50;;;;;;;;;;6081207;23;20351;-90
2022/05/05 10:15:40;;;;;;;13.10;9.07;;;;;;;;;;6056937;23;20097;-90
2022/05/05 10:18:08;;;;;;;13.70;7.00;;;;;;;;;;6056495;23;20026;-90
2022/05/05 10:20:38;;;;;;;12.02;8.13;;;;;;;;;;6100293;23;20013;-88
2022/05/05 10:23:44;;;;;;;13.13;7.35;;;15.80;99.90;;;;;;6168252;23;20071;-87
2022/05/05 10:26:11;;;;;;;11.50;8.60;;;;;;;;;;6163719;23;20052;-85
2022/05/05 10:28:49;;;;;;;32.35;10.93;;;16.00;99.90;;;;;;6173837;23;20111;-86
2022/05/05 10:31:31;;;;;;;11.43;7.88;;;15.90;99.90;;;;;;6171000;23;20016;-86
2022/05/05 10:34:04;;;;;;;10.43;6.95;;;;;;;;;;6191919;23;20020;-87
2022/05/05 10:36:33;;;;;;;;;;;16.10;99.90;;;;;;6168877;23;20299;-87
2022/05/05 10:38:59;;;;;;;10.45;7.40;;;;;;;;;;6193849;23;19916;-88
2022/05/05 10:41:34;;;;;;;9.57;7.28;;;;;;;;;;6167888;23;20028;-86
2022/05/05 10:44:15;;;;;;;10.10;6.57;;;;;;;;;;6192207;23;20457;-89
2022/05/05 10:46:51;;;;;;;18.25;7.35;;;;;;;;;;6167395;23;20021;-89
2022/05/05 10:49:32;;;;;;;12.43;7.95;;;;;;;;;;6169541;23;20023;-92
2022/05/05 10:52:22;;;;;;;8.85;6.15;;;16.30;99.90;;;;;;6192899;23;20017;-91
2022/05/05 10:55:49;;;;;;;;;;;;;;;;;;;;;
2022/05/05 11:04:05;;;;;;;;;;;;;;;;;;;;;
2022/05/05 11:10:21;;;;;;;;;;;;;;;;;;;;;
2022/05/05 11:25:17;;;;;;;;;;;;;;;;;;;;;
2022/05/05 11:47:25;;;;;;;10.48;6.72;;;18.00;99.90;;;;;;6211043;22;20024;-95
2022/05/05 11:49:59;;;;;;;8.73;7.50;;;17.70;99.90;;;;;;6199315;23;20023;-94
2022/05/05 12:19:04;;;;;;;15.80;7.40;;;;;;;;;;6182655;23;20024;-91
2022/05/05 12:22:39;;;;;;;;;;;;;;;;;;;;;
2022/05/05 13:45:15;;;;;;;9.98;6.35;;;;;;;;;;6205895;22;20055;-88
2022/05/05 13:47:45;;;;;;;7.45;5.68;;;;;;;;;;6168190;23;20550;-87
2022/05/05 13:50:14;;;;;;;9.98;6.07;;;19.00;99.90;;;;;;6166733;23;20016;-90
2022/05/05 13:52:42;;;;;;;7.82;6.07;;;;;;;;;;6165453;23;20048;-88
2022/05/05 13:55:35;;;;;;;7.95;5.75;;;18.90;99.90;;;;;;6167765;23;20024;-91
2022/05/05 13:58:16;;;;;;;9.27;5.53;;;;;;;;;;6100280;23;20336;-90
2022/05/05 14:00:42;;;;;;;11.05;5.63;;;;;;;;;;6124784;23;20018;-89
2022/05/05 14:03:13;;;;;;;9.20;6.90;;;;;;;;;;6077276;23;20026;-91
2022/05/05 14:05:58;;;;;;;9.55;6.95;;;19.00;99.90;;;;;;6076910;23;20018;-93
2022/05/05 14:14:02;;;;;;;9.05;6.95;;;;;;;;;;6102237;23;20017;-91
2022/05/05 14:16:31;;;;;;;10.50;6.97;;;;;;;;;;6078480;23;20054;-89
2022/05/05 14:19:17;;;;;;;10.85;7.93;;;18.60;99.90;;;;;;6078428;23;20096;-91
2022/05/05 14:21:46;;;;;;;11.18;7.65;;;18.70;99.90;;;;;;6092491;23;20017;-88
2022/05/05 14:24:12;;;;;;;11.23;6.75;;;;;;;;;;6167143;23;20023;-87
2022/05/05 14:27:08;;;;;;;10.10;6.05;;;19.00;99.90;;;;;;6168461;23;20025;-94
2022/05/05 14:29:34;;;;;;;6.95;5.97;;;;;;;;;;6166133;23;20477;-89
2022/05/05 14:32:00;;;;;;;9.05;6.22;;;;;;;;;;6191902;23;20012;-89
2022/05/05 14:34:26;;;;;;;9.43;6.03;;;;;;;;;;6167613;23;20035;-88
2022/05/05 14:36:52;;;;;;;12.75;7.35;;;;;;;;;;6191064;23;20088;-90
2022/05/05 14:39:26;;;;;;;11.00;8.38;;;;;;;;;;6167606;23;20091;-89
2022/05/05 14:41:52;;;;;;;12.65;8.27;;;;;;;;;;6190707;23;20354;-90
2022/05/05 14:44:24;;;;;;;14.65;9.02;;;19.00;99.90;;;;;;6168257;23;20020;-93
2022/05/05 14:47:28;;;;;;;12.43;7.72;;;19.20;99.90;;;;;;6165400;22;20047;-89
2022/05/05 14:49:55;;;;;;;12.02;7.40;;;;;;;;;;6167452;23;20024;-94
2022/05/05 14:52:25;;;;;;;10.55;7.88;;;19.10;99.90;;;;;;6166679;23;20048;-87
2022/05/05 14:54:53;;;;;;;10.90;7.32;;;19.20;99.90;;;;;;6167147;23;20078;-89
2022/05/05 15:02:04;;;;;;;9.57;7.03;;;19.10;99.90;;;;;;6156584;23;20032;-94
2022/05/05 15:04:35;;;;;;;12.90;7.03;;;19.20;99.90;;;;;;6132323;23;20017;-92
2022/05/05 15:07:19;;;;;;;12.80;7.75;;;19.20;99.90;;;;;;6130823;23;20544;-90
2022/05/05 15:10:16;;;;;;;;;;;;;;;;;;;;;
2022/05/05 15:15:20;;;;;;;10.45;8.20;;;;;;;;;;6190792;23;20021;-89
2022/05/05 15:17:59;;;;;;;226.32;29.52;;;;;;;;;;6172683;23;20045;-94
2022/05/05 15:20:35;;;;;;;137.93;23.13;;;;;;;;;;6197662;23;20021;-91
2022/05/05 15:31:23;;;;;;;;;;;;;;;;;;;;;
2022/05/05 15:33:59;;;;;;;18.08;9.38;;;18.70;99.90;;;;;;6136718;23;20027;-93
2022/05/05 15:36:26;;;;;;;12.30;8.50;;;;;;;;;;6140230;23;20020;-92
2022/05/05 15:38:53;;;;;;;13.15;9.30;;;19.10;99.90;;;;;;6139298;23;20096;-92
2022/05/05 15:41:21;;;;;;;16.08;8.68;;;19.10;99.90;;;;;;6166465;23;20269;-90
2022/05/05 15:43:48;;;;;;;18.45;9.95;;;;;;;;;;6156727;23;20017;-88
2022/05/05 15:46:27;;;;;;;13.75;8.82;;;19.20;99.90;;;;;;6195072;23;20017;-92
2022/05/05 15:48:57;;;;;;;12.05;8.15;;;;;;;;;;6165042;23;20017;-87
2022/05/05 15:51:34;;;;;;;10.40;8.63;;;19.30;99.90;;;;;;6141296;23;20040;-92
2022/05/05 15:54:03;;;;;;;16.15;9.73;;;19.20;99.90;;;;;;6138159;23;20025;-88
2022/05/05 15:56:29;;;;;;;14.10;9.05;;;;;;;;;;6135559;23;20016;-89
2022/05/05 15:58:55;;;;;;;15.45;9.80;;;;;;;;;;6159923;23;20021;-89
2022/05/05 16:01:23;;;;;;;15.68;9.38;;;;;;;;;;6136991;23;20021;-88
2022/05/05 16:03:49;;;;;;;15.77;9.70;;;;;;;;;;6187050;23;20028;-87
2022/05/05 16:06:15;;;;;;;14.30;10.10;;;;;;;;;;6186634;23;20099;-88
2022/05/05 16:08:48;;;;;;;17.17;10.20;;;19.40;99.90;;;;;;6159414;23;20092;-89
2022/05/05 16:11:14;;;;;;;20.20;11.15;;;;;;;;;;6160998;23;20024;-88
2022/05/05 16:13:41;;;;;;;19.90;10.63;;;;;;;;;;6136246;23;20331;-88
2022/05/05 16:16:09;;;;;;;18.25;9.88;;;19.20;99.90;;;;;;6160901;23;20017;-89
2022/05/05 16:18:52;;;;;;;17.05;11.15;;;19.10;99.90;;;;;;6136936;23;20017;-88
2022/05/05 16:21:18;;;;;;;15.95;10.40;;;;;;;;;;6136614;23;20120;-88
2022/05/05 16:23:55;;;;;;;20.10;12.43;;;;;;;;;;6160380;23;20056;-88
2022/05/05 16:31:54;;;;;;;21.52;12.77;;;;;;;;;;6140833;23;20025;-89
2022/05/05 16:34:20;;;;;;;17.50;11.57;;;;;;;;;;6135426;23;20056;-88
2022/05/05 16:36:46;;;;;;;15.13;12.18;;;;;;;;;;6160682;23;20032;-89
2022/05/05 16:39:12;;;;;;;18.30;11.43;;;;;;;;;;6160045;23;20462;-87
2022/05/05 16:41:41;;;;;;;16.60;11.20;;;19.00;99.90;;;;;;6159767;23;20126;-89
2022/05/05 16:44:08;;;;;;;20.13;12.52;;;;;;;;;;6159958;23;20435;-89
2022/05/05 16:50:26;;;;;;;20.25;13.05;;;19.00;99.90;;;;;;6095029;23;20117;-91
2022/05/05 16:52:55;;;;;;;22.20;13.35;;;;;;;;;;6095182;23;20047;-90
2022/05/05 16:55:21;;;;;;;21.00;13.98;;;;;;;;;;6095021;23;20482;-89
2022/05/05 16:57:51;;;;;;;19.63;13.80;;;18.50;99.90;;;;;;6071247;23;20070;-90
2022/05/05 17:00:21;;;;;;;22.45;14.32;;;18.70;99.90;;;;;;6095049;23;20054;-89
2022/05/05 17:02:47;;;;;;;23.67;14.10;;;;;;;;;;6048047;23;20022;-86
2022/05/05 17:05:14;;;;;;;15.85;13.20;;;;;;;;;;6095200;23;20014;-88
2022/05/05 17:07:40;;;;;;;27.00;13.85;;;18.40;99.90;;;;;;6095256;23;20058;-86
2022/05/05 17:10:07;;;;;;;27.05;15.93;;;18.50;99.90;;;;;;6047504;23;20030;-86
2022/05/05 17:12:33;;;;;;;19.15;14.43;;;;;;;;;;6071034;23;20010;-89
2022/05/05 17:14:59;;;;;;;22.52;15.27;;;;;;;;;;6071172;23;20033;-88
2022/05/05 17:17:25;;;;;;;28.67;16.02;;;18.40;99.90;;;;;;6070779;23;20066;-85
2022/05/05 17:19:51;;;;;;;31.60;16.35;;;;;;;;;;6071138;23;20019;-85
2022/05/05 17:22:17;;;;;;;38.28;17.40;;;;;;;;;;6070892;23;20058;-86
2022/05/05 17:24:43;;;;;;;31.13;16.60;;;;;;;;;;6070750;23;20479;-86
2022/05/05 17:27:09;;;;;;;30.00;17.75;;;;;;;;;;6119944;23;20459;-90
2022/05/05 17:29:35;;;;;;;23.88;16.88;;;;;;;;;;6135236;23;20013;-90
2022/05/05 17:32:02;;;;;;;29.88;18.65;;;;;;;;;;6135101;23;20045;-86
2022/05/05 17:34:28;;;;;;;27.48;17.60;;;;;;;;;;6134528;23;20020;-85
2022/05/05 17:36:54;;;;;;;28.90;18.52;;;;;;;;;;6135599;23;20071;-89
2022/05/05 17:39:20;;;;;;;30.42;18.65;;;;;;;;;;6159553;23;20021;-90
2022/05/05 17:41:46;;;;;;;30.00;18.50;;;;;;;;;;6135953;23;20013;-88
2022/05/05 17:52:29;;;;;;;28.45;17.77;;;;;;;;;;6161472;23;20434;-87
2022/05/05 17:54:56;;;;;;;31.38;18.05;;;;;;;;;;6136832;23;20021;-86
2022/05/05 17:57:23;;;;;;;27.38;18.13;;;;;;;;;;6136718;23;20017;-85
2022/05/05 17:59:49;;;;;;;24.42;17.73;;;18.00;99.90;;;;;;6136773;23;20025;-85
2022/05/05 18:02:15;;;;;;;26.15;16.17;;;;;;;;;;6136896;23;20015;-85
2022/05/05 18:04:41;;;;;;;26.65;17.27;;;;;;;;;;6136778;23;20079;-86
2022/05/05 18:07:10;;;;;;;26.75;17.75;;;17.60;99.90;;;;;;6161269;23;20021;-87
2022/05/05 18:23:42;;;;;;;;;;;;;;;;;;;;;
2022/05/05 18:30:10;;;;;;;32.97;18.15;;;16.50;99.90;;;;;;5833206;24;20052;-96
2022/05/05 18:32:41;;;;;;;31.08;18.77;;;16.50;99.90;;;;;;5795662;24;20081;-93
2022/05/05 18:35:10;;;;;;;29.67;16.90;;;16.40;99.90;;;;;;5799034;24;20027;-89
2022/05/05 18:37:36;;;;;;;31.70;18.77;;;;;;;;;;5799713;24;20031;-89
2022/05/05 18:40:09;;;;;;;29.98;19.20;;;16.30;99.90;;;;;;5797667;24;20081;-90
2022/05/05 18:42:38;;;;;;;26.92;19.13;;;16.00;99.90;;;;;;5798780;24;20030;-91
2022/05/05 18:45:07;;;;;;;27.88;18.20;;;16.20;99.90;;;;;;5798295;24;20023;-90
2022/05/05 18:47:34;;;;;;;32.75;18.67;;;;;;;;;;5798595;24;20093;-89
2022/05/05 18:50:02;;;;;;;30.85;19.73;;;;;;;;;;5798877;24;20023;-89
2022/05/05 18:52:30;;;;;;;33.92;19.73;;;;;;;;;;5837513;24;20024;-94
2022/05/05 18:54:57;;;;;;;31.70;19.70;;;;;;;;;;5935560;24;20069;-93
2022/05/05 18:57:35;;;;;;;;;;;;;;;;;;;;;
2022/05/05 19:00:05;;;;;;;28.38;19.80;;;;;;;;;;6131837;23;20024;-92
2022/05/05 19:02:34;;;;;;;33.60;19.23;;;;;;;;;;6132340;23;20017;-91
2022/05/05 19:05:00;;;;;;;30.05;18.10;;;;;;;;;;6108563;23;20017;-90
2022/05/05 19:07:29;;;;;;;30.20;18.63;;;;;;;;;;6132103;23;20128;-89
2022/05/05 19:10:02;;;;;;;37.55;20.73;;;;;;;;;;6107965;23;20022;-90
2022/05/05 19:12:55;;;;;;;32.60;19.92;;;;;;;;;;6132176;23;20033;-90
2022/05/05 19:15:25;;;;;;;31.15;18.13;;;;;;;;;;6108204;23;20025;-89